Time;durP1;ratioP1;P1;durP2;ratioP2;P2;SDS_P1;SDS_P2;PMS_P1;PMS_P2;Temp;Humidity;BMP_temperature;BMP_pressure;BME280_temperature;BME280_humidity;BME280_pressure;Samples;Min_cycle;Max_cycle;Signal;HPM_P1;HPM_P2
2022/02/28 00:02:06;;;;;;;15.77;10.67;;;1.90;99.90;1.60;102493.00;;;;4931119;28;93793;-64
2022/02/28 00:04:32;;;;;;;20.13;9.53;;;1.80;99.90;1.60;102485.00;;;;4934184;28;101433;-66
2022/02/28 00:06:58;;;;;;;19.27;9.60;;;1.80;99.90;1.60;102501.00;;;;4931663;28;92840;-63
2022/02/28 00:09:24;;;;;;;19.37;9.53;;;1.80;99.90;1.60;102481.00;;;;4921028;28;123246;-65
2022/02/28 00:11:50;;;;;;;14.03;10.23;;;1.10;99.90;1.60;102486.00;;;;4932629;28;93950;-64
2022/02/28 00:14:15;;;;;;;15.93;9.73;;;2.50;99.90;1.60;102486.00;;;;4921937;28;93086;-65
2022/02/28 00:16:42;;;;;;;17.40;10.17;;;2.30;99.90;1.60;102487.00;;;;4933246;28;109267;-64
2022/02/28 00:19:07;;;;;;;18.70;9.90;;;1.90;99.90;1.60;102493.00;;;;4920872;28;94092;-64
2022/02/28 00:21:33;;;;;;;17.97;10.63;;;1.80;99.90;1.60;102492.00;;;;4918853;28;122799;-65
2022/02/28 00:23:59;;;;;;;21.70;9.97;;;1.80;99.90;1.60;102490.00;;;;4938518;28;92656;-64
2022/02/28 00:26:25;;;;;;;16.77;9.27;;;1.80;99.90;1.60;102490.00;;;;4932510;28;93035;-65
2022/02/28 00:28:51;;;;;;;13.93;9.50;;;1.80;99.90;1.60;102482.00;;;;4920415;28;118026;-64
2022/02/28 00:31:19;;;;;;;19.20;10.10;;;1.80;99.90;1.60;102480.00;;;;4911985;28;122064;-63
2022/02/28 00:33:44;;;;;;;20.93;9.83;;;1.90;99.90;1.70;102481.00;;;;4936483;28;96222;-64
2022/02/28 00:36:10;;;;;;;15.30;10.07;;;2.50;99.90;1.70;102493.00;;;;4960287;28;104049;-64
2022/02/28 00:38:36;;;;;;;19.60;9.47;;;1.90;99.90;1.70;102484.00;;;;4939072;28;123180;-65
2022/02/28 00:41:02;;;;;;;16.80;9.60;;;1.90;99.90;1.70;102483.00;;;;4934696;28;93177;-64
2022/02/28 00:43:28;;;;;;;19.57;8.93;;;1.90;99.90;1.70;102486.00;;;;4919279;28;92964;-64
2022/02/28 00:45:54;;;;;;;14.43;10.00;;;1.90;99.90;1.70;102468.00;;;;4917104;28;93043;-65
2022/02/28 00:48:19;;;;;;;14.20;7.67;;;2.40;99.90;1.80;102478.00;;;;4931865;28;95966;-64
2022/02/28 00:50:46;;;;;;;14.07;8.27;;;2.00;99.90;1.70;102470.00;;;;4934969;28;121748;-64
2022/02/28 00:53:11;;;;;;;17.77;9.80;;;2.00;99.90;1.70;102477.00;;;;4922550;28;92175;-64
2022/02/28 00:55:37;;;;;;;16.40;9.23;;;2.00;99.90;1.70;102467.00;;;;4916456;28;107203;-64
2022/02/28 00:58:04;;;;;;;17.47;9.00;;;1.90;99.90;1.70;102474.00;;;;4916134;28;100723;-64
2022/02/28 01:00:30;;;;;;;9.97;7.03;;;2.00;99.90;1.70;102477.00;;;;4916497;28;93808;-64
2022/02/28 01:02:56;;;;;;;16.67;8.87;;;2.00;99.90;1.70;102475.00;;;;4915422;28;111052;-64
2022/02/28 01:05:23;;;;;;;16.90;9.53;;;1.90;99.90;1.70;102468.00;;;;4916800;28;93209;-64
2022/02/28 01:07:49;;;;;;;8.23;6.47;;;2.00;99.90;1.70;102473.00;;;;4915596;28;93611;-65
2022/02/28 01:10:18;;;;;;;11.77;7.73;;;1.90;99.90;1.70;102471.00;;;;4914874;28;120080;-64
2022/02/28 01:12:44;;;;;;;29.97;10.13;;;1.90;99.90;1.80;102473.00;;;;4916945;28;96667;-64
2022/02/28 01:15:12;;;;;;;15.50;7.70;;;2.90;99.90;1.80;102471.00;;;;4919522;28;107227;-64
2022/02/28 01:17:37;;;;;;;16.80;7.83;;;2.00;99.90;1.80;102471.00;;;;4930922;28;93138;-64
2022/02/28 01:20:05;;;;;;;10.50;7.23;;;2.10;99.90;1.80;102476.00;;;;4914925;28;120948;-63
2022/02/28 01:22:31;;;;;;;17.43;9.33;;;2.00;99.90;1.80;102477.00;;;;4916311;28;104048;-65
2022/02/28 01:24:56;;;;;;;12.40;7.77;;;2.10;99.90;1.80;102467.00;;;;4915315;28;108144;-65
2022/02/28 01:27:22;;;;;;;17.77;10.53;;;2.00;99.90;1.70;102467.00;;;;4931954;28;93148;-64
2022/02/28 01:29:49;;;;;;;13.50;7.40;;;2.00;99.90;1.70;102468.00;;;;4934550;28;93762;-64
2022/02/28 01:32:16;;;;;;;22.27;8.83;;;2.00;99.90;1.70;102460.00;;;;4925171;28;92949;-64
2022/02/28 01:34:41;;;;;;;14.97;7.40;;;2.00;99.90;1.70;102468.00;;;;4916306;28;93007;-64
2022/02/28 01:37:07;;;;;;;12.13;8.27;;;1.90;99.90;1.70;102468.00;;;;4921380;28;93241;-64
2022/02/28 01:39:33;;;;;;;8.63;6.50;;;1.90;99.90;1.70;102461.00;;;;4933859;28;120504;-64
2022/02/28 01:41:59;;;;;;;14.00;7.70;;;2.00;99.90;1.70;102477.00;;;;4935150;28;110254;-64
2022/02/28 01:44:25;;;;;;;12.80;8.23;;;1.90;99.90;1.70;102464.00;;;;4935571;28;92824;-65
2022/02/28 01:46:51;;;;;;;17.00;9.10;;;1.90;99.90;1.70;102476.00;;;;4923442;28;93702;-64
2022/02/28 01:49:16;;;;;;;13.47;8.10;;;2.10;99.90;1.60;102465.00;;;;4914934;28;93816;-64
2022/02/28 01:51:42;;;;;;;14.13;8.73;;;1.80;99.90;1.60;102464.00;;;;4915915;28;96508;-65
2022/02/28 01:54:08;;;;;;;12.30;8.37;;;1.90;99.90;1.60;102457.00;;;;4917294;28;95151;-64
2022/02/28 01:56:35;;;;;;;11.37;7.27;;;1.80;99.90;1.60;102460.00;;;;4934702;28;93789;-64
2022/02/28 01:59:01;;;;;;;12.13;8.27;;;2.00;99.90;1.60;102457.00;;;;4933166;28;96313;-65
2022/02/28 02:01:27;;;;;;;10.60;7.63;;;1.90;99.90;1.60;102455.00;;;;4933980;28;92767;-64
2022/02/28 02:03:52;;;;;;;16.03;8.70;;;1.80;99.90;1.60;102456.00;;;;4932980;28;92733;-64
2022/02/28 02:06:20;;;;;;;14.23;7.47;;;1.80;99.90;1.60;102463.00;;;;4934120;28;123712;-64
2022/02/28 02:08:45;;;;;;;11.93;8.03;;;1.80;99.90;1.60;102452.00;;;;4934747;28;93320;-64
2022/02/28 02:11:12;;;;;;;15.13;8.13;;;1.80;99.90;1.70;102459.00;;;;4934597;28;100218;-64
2022/02/28 02:13:38;;;;;;;8.67;6.90;;;1.90;99.90;1.60;102449.00;;;;4932672;28;106733;-65
2022/02/28 02:16:04;;;;;;;10.73;7.17;;;1.90;99.90;1.60;102444.00;;;;4915920;28;110477;-64
2022/02/28 02:18:30;;;;;;;17.17;8.37;;;1.90;99.90;1.60;102449.00;;;;4915237;28;94049;-65
2022/02/28 02:20:56;;;;;;;15.73;7.33;;;2.40;99.90;1.60;102454.00;;;;4914472;28;92664;-65
2022/02/28 02:23:23;;;;;;;11.03;7.37;;;1.90;99.90;1.60;102449.00;;;;4930605;28;93042;-64
2022/02/28 02:25:49;;;;;;;11.70;7.60;;;1.90;99.90;1.60;102454.00;;;;4913163;28;95874;-63
2022/02/28 02:28:17;;;;;;;13.70;8.43;;;1.90;99.90;1.60;102447.00;;;;4914340;28;123253;-65
2022/02/28 02:30:49;;;;;;;16.00;8.80;;;1.90;99.90;1.60;102470.00;;;;4916322;28;92320;-65
2022/02/28 02:33:16;;;;;;;14.47;7.43;;;2.00;99.90;1.60;102460.00;;;;4915353;28;92909;-66
2022/02/28 02:35:55;;;;;;;14.03;7.83;;;2.10;99.90;1.50;102457.00;;;;4915304;28;92848;-66
2022/02/28 02:38:24;;;;;;;12.53;7.67;;;1.80;99.90;1.50;102455.00;;;;4914606;28;96263;-64
2022/02/28 02:40:49;;;;;;;14.00;7.87;;;1.80;99.90;1.50;102458.00;;;;4914542;28;92862;-64
2022/02/28 02:43:16;;;;;;;13.27;7.77;;;1.80;99.90;1.40;102460.00;;;;4915858;28;92936;-63
2022/02/28 02:45:42;;;;;;;11.33;8.00;;;1.80;99.90;1.40;102457.00;;;;4915132;28;94025;-63
2022/02/28 02:48:19;;;;;;;15.40;7.40;;;2.20;99.90;1.30;102455.00;;;;4914528;28;96086;-63
2022/02/28 02:50:44;;;;;;;12.83;8.03;;;1.60;99.90;1.30;102454.00;;;;4914113;28;98368;-64
2022/02/28 02:53:11;;;;;;;10.63;6.97;;;1.60;99.90;1.30;102445.00;;;;4915319;28;108965;-64
2022/02/28 02:55:37;;;;;;;9.33;6.40;;;1.50;99.90;1.20;102446.00;;;;4914730;28;111722;-65
2022/02/28 02:58:04;;;;;;;11.57;6.70;;;1.50;99.90;1.30;102449.00;;;;4913838;28;121228;-65
2022/02/28 03:00:32;;;;;;;13.50;7.80;;;1.50;99.90;1.30;102443.00;;;;4916438;28;92776;-65
2022/02/28 03:02:58;;;;;;;14.73;6.47;;;1.60;99.90;1.40;102426.00;;;;4932343;28;100147;-65
2022/02/28 03:05:24;;;;;;;11.37;7.40;;;1.60;99.90;1.30;102433.00;;;;4933016;28;111356;-64
2022/02/28 03:07:49;;;;;;;8.77;7.07;;;1.60;99.90;1.30;102433.00;;;;4932702;28;120975;-65
2022/02/28 03:10:15;;;;;;;15.27;8.37;;;1.60;99.90;1.30;102424.00;;;;4933992;28;92984;-64
2022/02/28 03:12:41;;;;;;;16.70;7.10;;;1.60;99.90;1.30;102434.00;;;;4916617;28;108665;-65
2022/02/28 03:15:08;;;;;;;12.07;7.00;;;1.40;99.90;1.20;102433.00;;;;4918211;28;108634;-64
2022/02/28 03:17:46;;;;;;;11.83;7.57;;;1.50;99.90;1.20;102429.00;;;;5017680;27;80769;-64
2022/02/28 03:20:12;;;;;;;11.57;7.10;;;1.40;99.90;1.20;102422.00;;;;4994204;28;105793;-64
2022/02/28 03:22:38;;;;;;;15.17;7.33;;;1.80;99.90;1.20;102425.00;;;;4996054;27;80894;-63
2022/02/28 03:25:05;;;;;;;10.07;6.23;;;1.40;99.90;1.20;102420.00;;;;4994870;27;107107;-63
2022/02/28 03:27:32;;;;;;;13.13;7.50;;;1.50;99.90;1.20;102420.00;;;;4995496;28;81901;-63
2022/02/28 03:29:57;;;;;;;10.13;6.90;;;1.50;99.90;1.20;102411.00;;;;4995702;27;81196;-63
2022/02/28 03:32:23;;;;;;;11.93;6.23;;;1.50;99.90;1.20;102427.00;;;;4994442;27;110372;-63
2022/02/28 03:34:49;;;;;;;8.27;5.20;;;1.50;99.90;1.20;102414.00;;;;4995060;28;108138;-64
2022/02/28 03:37:15;;;;;;;13.67;7.13;;;1.40;99.90;1.20;102424.00;;;;4995033;27;93979;-63
2022/02/28 03:39:40;;;;;;;10.67;6.53;;;1.50;99.90;1.20;102411.00;;;;4994237;27;96651;-65
2022/02/28 03:42:06;;;;;;;14.33;7.93;;;1.40;99.90;1.20;102421.00;;;;4994656;27;111029;-63
2022/02/28 03:44:32;;;;;;;11.97;7.13;;;1.50;99.90;1.20;102418.00;;;;4995865;27;80830;-63
2022/02/28 03:46:58;;;;;;;11.03;6.53;;;1.50;99.90;1.10;102422.00;;;;4994694;28;110515;-65
2022/02/28 03:49:24;;;;;;;11.40;7.03;;;1.40;99.90;1.20;102413.00;;;;4994006;28;110201;-63
2022/02/28 03:51:49;;;;;;;11.73;7.23;;;2.10;99.90;1.20;102418.00;;;;4994066;28;109904;-66
2022/02/28 03:54:15;;;;;;;12.50;7.47;;;1.40;99.90;1.20;102411.00;;;;4994222;28;108059;-65
2022/02/28 03:56:43;;;;;;;11.23;5.67;;;1.40;99.90;1.20;102411.00;;;;4993143;28;81186;-65
2022/02/28 03:59:12;;;;;;;7.07;6.17;;;1.40;99.90;1.20;102400.00;;;;4975040;28;102296;-65
2022/02/28 04:01:38;;;;;;;10.70;6.47;;;1.50;99.90;1.20;102395.00;;;;4976300;28;82186;-65
2022/02/28 04:04:04;;;;;;;14.67;6.97;;;1.40;99.90;1.10;102394.00;;;;4995019;27;87627;-66
2022/02/28 04:06:32;;;;;;;12.87;6.83;;;1.40;99.90;1.20;102408.00;;;;4995769;28;87599;-66
2022/02/28 04:08:59;;;;;;;9.93;6.83;;;1.40;99.90;1.20;102408.00;;;;4995477;27;81753;-66
2022/02/28 04:11:25;;;;;;;12.67;6.27;;;1.50;99.90;1.20;102411.00;;;;5001407;28;101060;-66
2022/02/28 04:13:51;;;;;;;14.57;7.20;;;1.40;99.90;1.10;102408.00;;;;4998026;28;80982;-64
2022/02/28 04:16:17;;;;;;;12.70;7.67;;;1.40;99.90;1.10;102410.00;;;;4994184;27;102815;-66
2022/02/28 04:18:43;;;;;;;15.90;7.57;;;1.90;99.90;1.10;102410.00;;;;4994919;28;80982;-64
2022/02/28 04:21:09;;;;;;;9.93;6.60;;;1.40;99.90;1.10;102404.00;;;;4993618;27;81649;-65
2022/02/28 04:23:34;;;;;;;10.30;7.77;;;1.40;99.90;1.10;102398.00;;;;4992130;28;106588;-64
2022/02/28 04:26:01;;;;;;;9.80;6.73;;;1.30;99.90;1.00;102394.00;;;;4993985;27;110723;-64
2022/02/28 04:28:27;;;;;;;12.97;7.10;;;1.30;99.90;1.00;102389.00;;;;4984798;27;84105;-66
2022/02/28 04:30:53;;;;;;;8.53;5.57;;;1.30;99.90;0.90;102397.00;;;;4977690;28;111227;-64
2022/02/28 04:33:18;;;;;;;8.13;6.67;;;1.20;99.90;0.90;102390.00;;;;4979917;28;108760;-64
2022/02/28 04:35:44;;;;;;;9.20;6.37;;;1.20;99.90;0.90;102387.00;;;;4986898;28;109840;-64
2022/02/28 04:38:10;;;;;;;8.83;5.60;;;1.20;99.90;0.90;102393.00;;;;4992669;28;110796;-64
2022/02/28 04:40:36;;;;;;;9.93;7.60;;;0.50;99.90;0.90;102392.00;;;;4984490;28;81085;-64
2022/02/28 04:43:03;;;;;;;13.47;7.10;;;1.10;99.90;0.90;102383.00;;;;4981944;28;80917;-64
2022/02/28 04:45:29;;;;;;;13.63;7.50;;;1.10;99.90;0.80;102392.00;;;;4981140;28;90842;-64
2022/02/28 04:47:54;;;;;;;13.17;6.90;;;1.10;99.90;0.80;102382.00;;;;4980651;28;93966;-64
2022/02/28 04:50:20;;;;;;;13.60;7.50;;;1.10;99.90;0.80;102384.00;;;;4980543;28;99665;-64
2022/02/28 04:52:46;;;;;;;17.10;7.33;;;1.10;99.90;0.80;102392.00;;;;4979940;28;109140;-64
2022/02/28 04:55:12;;;;;;;12.57;6.47;;;1.10;99.90;0.80;102384.00;;;;4981118;28;82252;-64
2022/02/28 04:57:47;;;;;;;10.63;6.57;;;1.00;99.90;0.80;102381.00;;;;4980701;28;89154;-64
2022/02/28 05:00:13;;;;;;;13.73;7.10;;;1.00;99.90;0.70;102383.00;;;;4979511;28;97796;-64
2022/02/28 05:02:39;;;;;;;13.80;7.60;;;1.10;99.90;0.70;102366.00;;;;4980584;28;81075;-65
2022/02/28 05:05:05;;;;;;;10.13;7.37;;;1.00;99.90;0.60;102375.00;;;;4981217;28;81408;-65
2022/02/28 05:07:31;;;;;;;9.80;6.40;;;1.00;99.90;0.60;102381.00;;;;4980456;28;98234;-65
2022/02/28 05:09:57;;;;;;;11.23;7.23;;;0.80;99.90;0.50;102373.00;;;;4980241;28;95494;-65
2022/02/28 05:12:23;;;;;;;13.73;7.00;;;0.90;99.90;0.50;102378.00;;;;4980781;28;81338;-65
2022/02/28 05:14:49;;;;;;;12.83;7.27;;;0.80;99.90;0.50;102384.00;;;;4979752;28;97034;-65
2022/02/28 05:17:15;;;;;;;14.27;6.43;;;0.70;99.90;0.50;102383.00;;;;4980061;28;81043;-65
2022/02/28 05:19:41;;;;;;;11.93;6.67;;;0.80;99.90;0.50;102387.00;;;;4981038;28;81365;-65
2022/02/28 05:22:08;;;;;;;11.13;6.70;;;0.70;99.90;0.50;102391.00;;;;4980546;28;80804;-64
2022/02/28 05:24:34;;;;;;;15.77;7.07;;;0.70;99.90;0.50;102383.00;;;;4979166;28;111683;-65
2022/02/28 05:27:00;;;;;;;13.40;6.43;;;1.60;99.90;0.50;102388.00;;;;4981255;28;81586;-65
2022/02/28 05:29:27;;;;;;;20.77;7.40;;;0.80;99.90;0.50;102396.00;;;;4962373;28;80979;-64
2022/02/28 05:31:56;;;;;;;13.20;8.57;;;0.70;99.90;0.50;102390.00;;;;4978706;28;81022;-64
2022/02/28 05:34:23;;;;;;;14.27;7.70;;;0.70;99.90;0.50;102397.00;;;;4976062;28;102253;-63
2022/02/28 05:36:49;;;;;;;14.13;7.90;;;1.20;99.90;0.50;102398.00;;;;4976687;28;81655;-63
2022/02/28 05:39:15;;;;;;;12.13;7.10;;;0.70;99.90;0.50;102393.00;;;;4975414;28;102290;-63
2022/02/28 05:41:40;;;;;;;14.13;6.80;;;0.70;99.90;0.50;102391.00;;;;4975991;28;92503;-63
2022/02/28 05:44:06;;;;;;;9.53;6.40;;;0.90;99.90;0.50;102391.00;;;;4976377;28;82150;-64
2022/02/28 05:46:32;;;;;;;8.80;6.53;;;0.80;99.90;0.50;102408.00;;;;4973509;28;111122;-64
2022/02/28 05:48:58;;;;;;;12.83;6.03;;;0.90;99.90;0.50;102406.00;;;;4973340;28;109570;-63
2022/02/28 05:51:25;;;;;;;11.37;6.40;;;0.90;99.90;0.50;102416.00;;;;4971351;28;81227;-64
2022/02/28 05:53:52;;;;;;;15.13;6.53;;;0.80;99.90;0.60;102415.00;;;;4976487;28;81014;-64
2022/02/28 05:56:18;;;;;;;10.73;7.20;;;0.90;99.90;0.60;102418.00;;;;4973469;28;81774;-63
2022/02/28 05:58:43;;;;;;;16.00;7.67;;;0.90;99.90;0.60;102417.00;;;;4975781;28;90606;-63
2022/02/28 06:01:09;;;;;;;13.83;7.50;;;0.80;99.90;0.60;102423.00;;;;4974781;28;108964;-63
2022/02/28 06:03:35;;;;;;;15.57;9.83;;;0.80;99.90;0.60;102430.00;;;;4973323;28;109370;-64
2022/02/28 06:06:00;;;;;;;12.07;7.90;;;0.90;99.90;0.60;102429.00;;;;4977106;28;102566;-64
2022/02/28 06:08:26;;;;;;;14.30;8.17;;;0.80;99.90;0.60;102430.00;;;;4980210;28;80920;-64
2022/02/28 06:10:52;;;;;;;15.90;7.77;;;0.80;99.90;0.60;102429.00;;;;4979296;28;108427;-64
2022/02/28 06:13:18;;;;;;;11.17;7.53;;;0.90;99.90;0.60;102427.00;;;;4979689;28;84882;-64
2022/02/28 06:15:43;;;;;;;8.13;7.23;;;0.80;99.90;0.70;102421.00;;;;4979317;28;81039;-65
2022/02/28 06:18:11;;;;;;;12.40;7.07;;;1.00;99.90;0.70;102426.00;;;;4979354;28;102208;-64
2022/02/28 06:20:41;;;;;;;12.27;7.83;;;0.90;99.90;0.60;102441.00;;;;4980077;28;80996;-66
2022/02/28 06:23:09;;;;;;;18.83;8.63;;;0.90;99.90;0.60;102439.00;;;;4978319;28;80900;-64
2022/02/28 06:25:36;;;;;;;13.47;8.60;;;1.00;99.90;0.60;102441.00;;;;4980647;28;81868;-64
2022/02/28 06:28:03;;;;;;;14.67;7.87;;;0.90;99.90;0.60;102440.00;;;;4980392;28;81284;-64
2022/02/28 06:30:29;;;;;;;13.73;7.73;;;0.90;99.90;0.60;102439.00;;;;4978921;28;89781;-64
2022/02/28 06:32:54;;;;;;;11.63;7.57;;;1.80;99.90;0.60;102444.00;;;;4978919;28;110926;-64
2022/02/28 06:35:20;;;;;;;13.90;7.23;;;0.80;99.90;0.60;102443.00;;;;4976481;28;110314;-65
2022/02/28 06:37:46;;;;;;;12.57;7.63;;;1.60;99.90;0.60;102437.00;;;;4979776;28;80887;-64
2022/02/28 06:40:12;;;;;;;12.47;7.83;;;1.00;99.90;0.60;102442.00;;;;4979687;28;104923;-64
2022/02/28 06:42:38;;;;;;;17.37;9.80;;;1.00;99.90;0.60;102454.00;;;;4980485;28;82579;-64
2022/02/28 06:45:05;;;;;;;10.57;6.70;;;0.80;99.90;0.70;102443.00;;;;4980053;28;104410;-65
2022/02/28 06:47:30;;;;;;;10.57;7.67;;;0.90;99.90;0.70;102439.00;;;;4979198;28;88360;-64
2022/02/28 06:49:56;;;;;;;17.93;8.83;;;1.00;99.90;0.70;102451.00;;;;4980526;28;81063;-64
2022/02/28 06:52:24;;;;;;;16.40;7.53;;;1.00;99.90;0.80;102449.00;;;;4971903;28;110397;-64
2022/02/28 06:54:53;;;;;;;16.80;9.77;;;1.00;99.90;0.80;102456.00;;;;4959436;28;81560;-63
2022/02/28 06:57:19;;;;;;;13.43;7.33;;;1.10;99.90;0.80;102458.00;;;;4966969;28;81627;-64
2022/02/28 06:59:45;;;;;;;12.13;7.87;;;1.10;99.90;0.90;102459.00;;;;4978487;28;80942;-63
2022/02/28 07:02:11;;;;;;;15.30;8.27;;;1.10;99.90;0.90;102456.00;;;;4978159;28;111144;-64
2022/02/28 07:04:36;;;;;;;13.53;8.83;;;1.20;99.90;0.80;102466.00;;;;4978192;28;110719;-64
2022/02/28 07:07:03;;;;;;;13.63;8.93;;;1.10;99.90;0.80;102476.00;;;;4978680;28;110328;-64
2022/02/28 07:09:29;;;;;;;16.23;9.30;;;1.10;99.90;0.80;102462.00;;;;4978487;28;97732;-64
2022/02/28 07:11:55;;;;;;;19.97;7.87;;;1.10;99.90;0.80;102468.00;;;;4978082;28;110851;-64
2022/02/28 07:14:20;;;;;;;13.90;9.23;;;1.10;99.90;0.80;102478.00;;;;4978351;28;84985;-64
2022/02/28 07:16:46;;;;;;;13.10;8.63;;;1.10;99.90;0.90;102476.00;;;;4976241;28;88182;-63
2022/02/28 07:19:12;;;;;;;18.70;9.63;;;1.20;99.90;1.00;102475.00;;;;4977983;28;108054;-63
2022/02/28 07:21:38;;;;;;;13.37;9.10;;;1.20;99.90;1.00;102474.00;;;;4977461;28;84145;-64
2022/02/28 07:24:04;;;;;;;14.90;9.40;;;1.20;99.90;1.00;102470.00;;;;4978181;28;83888;-64
2022/02/28 07:26:30;;;;;;;14.07;8.70;;;1.30;99.90;1.00;102480.00;;;;4977884;28;87747;-65
2022/02/28 07:28:56;;;;;;;10.53;7.57;;;1.20;99.90;1.10;102481.00;;;;4978269;28;83013;-66
2022/02/28 07:31:22;;;;;;;16.07;9.90;;;1.30;99.90;1.10;102486.00;;;;4974165;28;101364;-64
2022/02/28 07:33:48;;;;;;;17.80;9.63;;;1.30;99.90;1.10;102487.00;;;;4977161;28;112589;-64
2022/02/28 07:36:14;;;;;;;15.33;9.67;;;1.40;99.90;1.10;102489.00;;;;4976526;28;110772;-65
2022/02/28 07:38:41;;;;;;;17.70;10.30;;;1.30;99.90;1.10;102495.00;;;;4977458;28;109589;-63
2022/02/28 07:41:07;;;;;;;17.60;9.17;;;1.40;99.90;1.10;102491.00;;;;4976729;28;83833;-64
2022/02/28 07:43:33;;;;;;;18.27;8.73;;;1.30;99.90;1.00;102497.00;;;;4977460;28;98829;-63
2022/02/28 07:45:59;;;;;;;13.33;9.03;;;2.20;99.90;1.00;102489.00;;;;4977888;28;82924;-63
2022/02/28 07:48:25;;;;;;;15.07;8.20;;;1.30;99.90;0.90;102486.00;;;;4978677;28;81850;-63
2022/02/28 07:50:51;;;;;;;18.80;8.67;;;1.20;99.90;0.90;102500.00;;;;4977726;28;83567;-64
2022/02/28 07:53:18;;;;;;;14.93;9.37;;;1.20;99.90;0.90;102500.00;;;;4981243;28;95557;-64
2022/02/28 07:55:45;;;;;;;17.53;8.10;;;1.10;99.90;1.00;102499.00;;;;4983941;28;83556;-63
2022/02/28 07:58:11;;;;;;;15.57;9.10;;;1.30;99.90;1.00;102505.00;;;;4977839;28;82601;-63
2022/02/28 08:00:37;;;;;;;12.23;7.47;;;1.20;99.90;1.10;102504.00;;;;4976636;28;98811;-63
2022/02/28 08:03:03;;;;;;;14.60;8.63;;;1.30;99.90;1.00;102508.00;;;;4977516;28;113500;-65
2022/02/28 08:05:28;;;;;;;12.97;8.50;;;1.30;99.90;1.00;102511.00;;;;4978538;28;82952;-64
2022/02/28 08:07:55;;;;;;;14.97;7.67;;;1.30;99.90;1.00;102507.00;;;;4981255;28;82844;-63
2022/02/28 08:10:21;;;;;;;12.97;8.50;;;1.30;99.90;1.20;102509.00;;;;4980612;28;84308;-65
2022/02/28 08:12:47;;;;;;;16.37;9.10;;;1.30;99.90;1.30;102509.00;;;;4980876;28;87913;-64
2022/02/28 08:15:13;;;;;;;12.23;8.47;;;2.30;99.90;1.40;102515.00;;;;4979963;28;109334;-64
2022/02/28 08:17:39;;;;;;;13.97;8.73;;;1.50;99.90;1.40;102520.00;;;;4979408;28;108095;-64
2022/02/28 08:20:06;;;;;;;19.20;10.43;;;1.60;99.90;1.40;102520.00;;;;4979929;28;97848;-65
2022/02/28 08:22:32;;;;;;;18.63;9.00;;;1.60;99.90;1.50;102509.00;;;;4978990;28;88074;-65
2022/02/28 08:25:00;;;;;;;14.17;8.87;;;1.70;99.90;1.50;102503.00;;;;4979998;28;113012;-66
2022/02/28 08:27:27;;;;;;;7.67;6.97;;;1.70;99.90;1.70;102502.00;;;;4980672;28;82617;-65
2022/02/28 08:29:53;;;;;;;13.00;7.90;;;2.70;99.90;1.80;102515.00;;;;4979701;28;104206;-64
2022/02/28 08:32:19;;;;;;;13.33;7.60;;;1.90;99.90;2.00;102509.00;;;;4978345;28;113110;-65
2022/02/28 08:34:44;;;;;;;13.40;8.60;;;2.10;99.90;2.20;102512.00;;;;4979771;28;82589;-64
2022/02/28 08:37:10;;;;;;;16.30;8.23;;;2.20;99.90;2.30;102517.00;;;;4980704;28;81656;-65
2022/02/28 08:39:36;;;;;;;18.73;8.57;;;2.40;99.90;2.40;102521.00;;;;4980400;28;83310;-65
2022/02/28 08:42:03;;;;;;;15.20;9.37;;;2.60;99.90;2.60;102512.00;;;;4978651;28;112902;-65
2022/02/28 08:44:29;;;;;;;13.70;9.30;;;2.70;99.90;2.90;102517.00;;;;4979471;28;83704;-65
2022/02/28 08:46:54;;;;;;;15.63;8.93;;;3.60;99.90;3.20;102520.00;;;;4980018;28;88771;-64
2022/02/28 08:49:20;;;;;;;15.80;9.73;;;3.20;99.90;3.50;102514.00;;;;4978936;28;112581;-64
2022/02/28 08:51:46;;;;;;;19.40;10.13;;;4.30;99.90;3.90;102525.00;;;;4979293;28;83651;-64
2022/02/28 08:54:12;;;;;;;15.30;9.60;;;3.80;99.90;4.40;102524.00;;;;4986008;28;83252;-64
2022/02/28 08:56:39;;;;;;;22.07;8.50;;;4.70;99.90;5.00;102530.00;;;;4982022;28;82878;-64
2022/02/28 08:59:05;;;;;;;16.83;9.30;;;4.80;99.90;5.60;102535.00;;;;4980919;28;82681;-65
2022/02/28 09:01:31;;;;;;;12.73;7.70;;;5.30;99.90;6.10;102520.00;;;;4980410;28;83091;-65
2022/02/28 09:03:57;;;;;;;11.10;7.17;;;5.90;99.90;6.40;102527.00;;;;4981247;28;82769;-66
2022/02/28 09:06:23;;;;;;;18.23;9.93;;;6.30;99.90;6.30;102528.00;;;;4977020;28;108257;-65
2022/02/28 09:08:49;;;;;;;17.80;8.13;;;6.30;99.30;6.30;102525.00;;;;4978431;28;114536;-64
2022/02/28 09:11:16;;;;;;;15.80;9.27;;;6.40;99.90;6.50;102538.00;;;;4977831;28;112801;-64
2022/02/28 09:13:42;;;;;;;19.50;9.43;;;6.80;98.60;6.50;102526.00;;;;4979617;28;82448;-64
2022/02/28 09:16:08;;;;;;;16.30;9.37;;;6.60;97.60;6.50;102530.00;;;;4979499;28;82560;-64
2022/02/28 09:18:34;;;;;;;22.10;9.70;;;6.60;94.30;6.40;102526.00;;;;4980161;28;82638;-64
2022/02/28 09:21:00;;;;;;;10.93;8.43;;;6.50;93.60;6.40;102520.00;;;;4978848;28;112510;-64
2022/02/28 09:23:26;;;;;;;15.30;9.20;;;6.50;94.30;6.60;102523.00;;;;4979733;28;82654;-65
2022/02/28 09:25:52;;;;;;;20.00;9.63;;;6.60;93.70;6.80;102526.00;;;;4979431;28;81975;-65
2022/02/28 09:28:18;;;;;;;14.57;10.10;;;6.80;94.20;7.10;102527.00;;;;4979416;28;110292;-65
2022/02/28 09:30:44;;;;;;;18.37;10.23;;;7.00;94.90;7.20;102534.00;;;;4978280;28;94518;-65
2022/02/28 09:33:10;;;;;;;16.77;9.07;;;7.20;93.30;7.20;102529.00;;;;4979098;28;84020;-64
2022/02/28 09:35:36;;;;;;;18.60;9.27;;;7.20;93.50;7.20;102544.00;;;;4978763;28;101974;-64
2022/02/28 09:38:02;;;;;;;14.13;8.00;;;7.20;93.00;7.20;102529.00;;;;4979627;28;83646;-64
2022/02/28 09:40:30;;;;;;;16.63;9.50;;;7.20;93.50;7.60;102534.00;;;;4979815;28;83050;-64
2022/02/28 09:43:00;;;;;;;14.93;8.07;;;7.50;94.00;7.90;102541.00;;;;4979437;28;82771;-64
2022/02/28 09:45:26;;;;;;;16.80;9.67;;;7.80;93.20;7.90;102542.00;;;;4979997;28;82609;-65
2022/02/28 09:47:56;;;;;;;14.70;8.63;;;7.80;92.60;7.90;102541.00;;;;4979171;28;84133;-64
2022/02/28 09:50:24;;;;;;;18.97;9.40;;;7.90;92.20;8.10;102537.00;;;;4980312;28;82863;-65
2022/02/28 09:52:50;;;;;;;14.30;7.40;;;8.10;91.30;8.10;102553.00;;;;4979053;28;82878;-66
2022/02/28 09:55:16;;;;;;;12.37;8.97;;;8.10;90.90;8.10;102549.00;;;;4978811;28;107452;-65
2022/02/28 09:57:51;;;;;;;12.70;7.70;;;8.10;91.30;8.30;102558.00;;;;4978345;28;83604;-66
2022/02/28 10:00:23;;;;;;;12.70;7.97;;;8.20;91.80;8.50;102554.00;;;;4979557;28;83038;-64
2022/02/28 10:02:51;;;;;;;15.83;8.13;;;8.40;90.10;8.70;102548.00;;;;4978611;28;82806;-65
2022/02/28 10:05:17;;;;;;;13.70;8.63;;;8.60;85.70;8.90;102557.00;;;;4979625;28;82905;-65
2022/02/28 10:07:56;;;;;;;15.70;7.30;;;8.80;87.30;8.90;102555.00;;;;4978509;28;112631;-64
2022/02/28 10:10:24;;;;;;;11.87;8.07;;;8.90;85.90;8.90;102559.00;;;;4979416;28;82843;-65
2022/02/28 10:12:51;;;;;;;15.73;8.73;;;8.90;80.10;8.90;102561.00;;;;4978342;28;82708;-65
2022/02/28 10:15:25;;;;;;;17.00;7.90;;;8.80;81.20;9.00;102560.00;;;;4979537;28;81931;-64
2022/02/28 10:18:00;;;;;;;16.70;8.83;;;8.90;81.90;9.20;102561.00;;;;4978551;28;84740;-64
2022/02/28 10:20:34;;;;;;;14.20;8.23;;;9.10;80.20;9.40;102564.00;;;;4979614;28;82768;-65
2022/02/28 10:23:10;;;;;;;19.93;9.10;;;9.30;81.00;9.70;102560.00;;;;4978650;28;83390;-65
2022/02/28 10:25:42;;;;;;;19.47;8.07;;;9.50;76.30;9.80;102571.00;;;;4978564;28;82762;-65
2022/02/28 10:28:15;;;;;;;13.27;8.37;;;9.70;75.00;10.00;102558.00;;;;4978903;28;97629;-65
2022/02/28 10:30:50;;;;;;;12.60;7.47;;;9.80;73.90;10.10;102564.00;;;;4979257;28;82834;-65
2022/02/28 10:33:16;;;;;;;11.37;6.87;;;10.00;75.20;10.40;102562.00;;;;4978899;28;82656;-65
2022/02/28 10:36:00;;;;;;;15.63;8.67;;;10.10;74.20;10.40;102550.00;;;;4979056;28;82842;-64
2022/02/28 10:38:31;;;;;;;13.33;8.27;;;10.20;68.30;10.50;102566.00;;;;4979360;28;82639;-65
2022/02/28 10:40:59;;;;;;;12.07;8.10;;;10.30;68.90;10.60;102561.00;;;;4977487;28;82758;-64
2022/02/28 10:43:34;;;;;;;15.30;8.27;;;10.40;68.00;10.70;102555.00;;;;4978451;28;82518;-64
2022/02/28 10:46:23;;;;;;;11.40;7.00;;;10.50;67.80;10.90;102545.00;;;;4978776;28;82637;-64
2022/02/28 10:49:09;;;;;;;12.40;6.87;;;10.70;68.10;11.00;102554.00;;;;4977494;28;84830;-64
2022/02/28 10:51:59;;;;;;;12.13;6.97;;;10.80;66.30;11.20;102551.00;;;;4976465;28;85247;-64